Time;durP1;ratioP1;P1;durP2;ratioP2;P2;SDS_P1;SDS_P2;PMS_P1;PMS_P2;Temp;Humidity;BMP_temperature;BMP_pressure;BME280_temperature;BME280_humidity;BME280_pressure;Samples;Min_cycle;Max_cycle;Signal;HPM_P1;HPM_P2
2022/03/03 00:04:56;;;;;;;11.20;5.80;;;;;;;-4.43;94.00;96987.66;10493443;28;20238;-59
2022/03/03 00:09:56;;;;;;;15.70;8.37;;;;;;;-4.51;94.03;96989.69;10545048;22;20332;-59
2022/03/03 00:14:57;;;;;;;9.40;5.83;;;;;;;-4.51;94.42;96990.50;10535536;28;20548;-58
2022/03/03 00:19:57;;;;;;;22.20;8.77;;;;;;;-4.55;93.61;96980.47;10534754;28;20209;-58
2022/03/03 00:24:57;;;;;;;17.03;9.10;;;;;;;-4.65;93.90;96982.53;10535259;28;20269;-59
2022/03/03 00:29:58;;;;;;;14.33;7.67;;;;;;;-4.71;95.22;96991.25;10534599;28;20240;-60
2022/03/03 00:34:58;;;;;;;20.67;7.93;;;;;;;-4.66;94.74;96991.91;10534754;28;20197;-59
2022/03/03 00:39:58;;;;;;;10.43;6.07;;;;;;;-4.73;95.13;97002.41;10534644;28;20293;-57
2022/03/03 00:44:59;;;;;;;14.97;7.40;;;;;;;-4.81;94.66;96989.91;10534452;28;20199;-59
2022/03/03 00:49:59;;;;;;;15.17;7.03;;;;;;;-4.88;96.32;96991.03;10534561;28;20280;-57
2022/03/03 00:55:01;;;;;;;14.50;6.73;;;;;;;-4.86;95.58;96976.47;10535809;28;20227;-58
2022/03/03 01:00:05;;;;;;;19.30;8.10;;;;;;;-4.92;95.89;96984.34;10542388;28;20204;-58
2022/03/03 01:05:06;;;;;;;11.80;5.37;;;;;;;-5.00;96.59;96976.13;10542533;28;20239;-57
2022/03/03 01:10:08;;;;;;;18.97;6.70;;;;;;;-5.05;96.48;96969.47;10541376;28;20279;-57
2022/03/03 01:15:09;;;;;;;15.93;8.53;;;;;;;-5.06;94.99;96955.00;10541959;28;20196;-59
2022/03/03 01:20:10;;;;;;;18.40;8.90;;;;;;;-5.14;95.75;96939.13;10541282;28;20622;-58
2022/03/03 01:25:11;;;;;;;14.73;8.67;;;;;;;-5.14;95.99;96935.75;10541370;28;20274;-59
2022/03/03 01:30:12;;;;;;;12.90;6.00;;;;;;;-5.10;95.11;96919.41;10540974;28;20585;-60
2022/03/03 01:35:12;;;;;;;12.87;6.10;;;;;;;-5.11;94.21;96912.66;10540464;28;20201;-60
2022/03/03 01:40:13;;;;;;;11.77;6.57;;;;;;;-5.21;93.10;96912.16;10540697;28;20213;-59
2022/03/03 01:45:14;;;;;;;14.13;6.53;;;;;;;-5.24;94.08;96905.44;10540470;28;20232;-57
2022/03/03 01:50:14;;;;;;;11.87;6.03;;;;;;;-5.31;94.00;96893.78;10540365;28;20281;-60
2022/03/03 01:55:15;;;;;;;11.10;5.77;;;;;;;-5.30;93.25;96892.03;10540220;28;20609;-59
2022/03/03 02:00:16;;;;;;;14.33;7.00;;;;;;;-5.35;93.69;96887.09;10539233;28;20239;-61
2022/03/03 02:05:17;;;;;;;12.10;6.77;;;;;;;-5.33;93.15;96889.59;10539825;28;20203;-59
2022/03/03 02:10:17;;;;;;;12.93;7.83;;;;;;;-5.32;92.92;96888.72;10539099;28;20736;-58
2022/03/03 02:15:20;;;;;;;15.20;6.93;;;;;;;-5.28;91.52;96880.03;10539588;28;20201;-58
2022/03/03 02:20:26;;;;;;;12.97;5.10;;;;;;;-5.34;91.00;96878.56;10539009;28;20210;-59
2022/03/03 02:25:26;;;;;;;20.00;7.53;;;;;;;-5.35;91.42;96883.72;10538950;28;20199;-57
2022/03/03 02:30:26;;;;;;;15.17;6.10;;;;;;;-5.33;91.15;96887.06;10538783;28;20230;-60
2022/03/03 02:35:29;;;;;;;17.90;7.17;;;;;;;-5.31;90.92;96877.59;10538005;28;20226;-57
2022/03/03 02:40:29;;;;;;;11.67;5.70;;;;;;;-5.35;89.79;96855.66;10538498;28;20332;-60
2022/03/03 02:45:30;;;;;;;11.47;5.10;;;;;;;-5.47;90.89;96867.13;10538110;28;20598;-59
2022/03/03 02:50:30;;;;;;;12.70;5.30;;;;;;;-5.42;90.39;96855.88;10537891;28;20602;-62
2022/03/03 02:55:30;;;;;;;12.13;6.50;;;;;;;-5.35;90.26;96843.69;10537852;28;20754;-61
2022/03/03 03:00:38;;;;;;;9.93;5.50;;;;;;;-5.29;89.24;96851.13;10537365;28;20754;-61
2022/03/03 03:05:39;;;;;;;12.50;5.13;;;;;;;-5.29;89.43;96838.38;10537698;28;20193;-61
2022/03/03 03:10:40;;;;;;;10.07;4.97;;;;;;;-5.23;87.48;96834.78;10536590;28;20238;-61
2022/03/03 03:15:43;;;;;;;17.03;5.87;;;;;;;-5.26;87.31;96832.34;10537190;28;20198;-60
2022/03/03 03:20:46;;;;;;;8.23;4.13;;;;;;;-5.28;87.29;96832.38;10536275;28;20209;-60
2022/03/03 03:25:47;;;;;;;9.03;4.83;;;;;;;-5.36;87.79;96842.03;10536528;28;20200;-57
2022/03/03 03:30:48;;;;;;;9.90;5.73;;;;;;;-5.29;87.11;96835.00;10536481;28;20295;-57
2022/03/03 03:35:48;;;;;;;4.80;3.43;;;;;;;-5.39;88.55;96842.13;10535553;28;20561;-58
2022/03/03 03:40:48;;;;;;;9.40;5.83;;;;;;;-5.34;87.33;96834.31;10536148;28;20204;-58
2022/03/03 03:45:49;;;;;;;7.07;4.77;;;;;;;-5.42;87.62;96830.34;10535884;28;20197;-57
2022/03/03 03:50:49;;;;;;;9.37;4.37;;;;;;;-5.51;88.68;96825.56;10535479;28;20219;-57
2022/03/03 03:55:50;;;;;;;10.60;4.47;;;;;;;-5.50;87.86;96824.66;10535791;28;20188;-56
2022/03/03 04:00:51;;;;;;;12.07;6.37;;;;;;;-5.50;88.40;96823.84;10535147;28;20747;-60
2022/03/03 04:05:51;;;;;;;11.00;5.50;;;;;;;-5.50;88.49;96828.94;10505306;28;20220;-55
2022/03/03 04:10:52;;;;;;;14.37;6.33;;;;;;;-5.53;88.56;96819.66;10493067;28;20239;-59
2022/03/03 04:15:52;;;;;;;14.77;5.37;;;;;;;-5.57;88.66;96818.13;10493582;28;20286;-55
2022/03/03 04:20:53;;;;;;;10.63;5.00;;;;;;;-5.63;88.15;96821.72;10493216;28;20223;-59
2022/03/03 04:25:53;;;;;;;11.20;5.10;;;;;;;-5.72;89.30;96811.84;10493097;28;20247;-54
2022/03/03 04:30:53;;;;;;;15.23;6.20;;;;;;;-5.81;89.97;96813.00;10478168;28;20306;-59
2022/03/03 04:35:54;;;;;;;10.53;4.77;;;;;;;-5.80;90.10;96819.78;10500899;28;20245;-56
2022/03/03 04:40:54;;;;;;;13.37;5.70;;;;;;;-5.82;89.71;96818.16;10501167;28;20224;-58
2022/03/03 04:45:54;;;;;;;14.60;7.93;;;;;;;-5.87;90.33;96803.00;10501043;28;20231;-57
2022/03/03 04:50:57;;;;;;;13.90;6.37;;;;;;;-5.82;89.60;96808.78;10500631;28;20235;-57
2022/03/03 04:55:58;;;;;;;12.03;6.40;;;;;;;-5.88;90.01;96808.16;10500564;28;20282;-61
2022/03/03 05:00:58;;;;;;;12.30;5.37;;;;;;;-5.85;90.77;96801.25;10500007;28;20725;-60
2022/03/03 05:05:59;;;;;;;14.17;7.50;;;;;;;-5.94;90.22;96809.19;10500070;28;20200;-58
2022/03/03 05:10:59;;;;;;;11.23;5.30;;;;;;;-5.93;92.05;96808.31;10499096;28;20348;-57
2022/03/03 05:15:59;;;;;;;10.80;4.73;;;;;;;-5.93;90.95;96790.47;10499345;28;20192;-59
2022/03/03 05:21:00;;;;;;;13.50;5.50;;;;;;;-6.06;92.27;96799.44;10499312;28;20225;-59
2022/03/03 05:26:00;;;;;;;13.93;6.60;;;;;;;-6.18;92.77;96796.44;10499558;28;20192;-59
2022/03/03 05:31:00;;;;;;;13.13;7.00;;;;;;;-6.05;92.62;96790.91;10498860;28;20222;-60
2022/03/03 05:36:04;;;;;;;14.77;6.07;;;;;;;-6.11;93.93;96787.72;10498676;28;20215;-58
2022/03/03 05:41:06;;;;;;;13.80;6.07;;;;;;;-6.17;93.22;96787.06;10498372;28;20215;-60
2022/03/03 05:46:06;;;;;;;17.20;7.70;;;;;;;-6.16;94.98;96794.66;10499043;28;20236;-60
2022/03/03 05:51:06;;;;;;;6.93;3.10;;;;;;;-6.05;93.94;96781.53;10498890;28;20212;-59
2022/03/03 05:56:11;;;;;;;16.03;7.37;;;;;;;-6.14;94.21;96789.50;10498539;28;20191;-58
2022/03/03 06:01:13;;;;;;;13.13;5.37;;;;;;;-6.05;96.07;96779.00;10498208;28;20719;-61
2022/03/03 06:06:22;;;;;;;13.63;5.57;;;;;;;-5.89;94.61;96779.28;10497902;28;20200;-60
2022/03/03 06:11:25;;;;;;;13.00;6.00;;;;;;;-5.76;94.81;96782.22;10521339;22;20234;-60
2022/03/03 06:16:26;;;;;;;14.17;7.73;;;;;;;-5.74;94.86;96794.03;10540092;28;20185;-58
2022/03/03 06:21:27;;;;;;;16.00;7.73;;;;;;;-5.68;94.23;96794.69;10538526;28;20237;-60
2022/03/03 06:26:27;;;;;;;42.03;15.77;;;;;;;-5.66;93.78;96778.44;10539106;28;20194;-59
2022/03/03 06:31:28;;;;;;;49.70;20.67;;;;;;;-5.67;93.74;96796.38;10539020;28;20229;-60
2022/03/03 06:36:28;;;;;;;33.17;12.87;;;;;;;-5.57;93.81;96792.63;10538571;28;20204;-60
2022/03/03 06:41:30;;;;;;;20.43;10.73;;;;;;;-5.26;92.49;96792.28;10538744;28;20237;-59
2022/03/03 06:46:31;;;;;;;18.70;10.90;;;;;;;-5.12;92.08;96786.66;10538850;28;20194;-58
2022/03/03 06:51:40;;;;;;;14.60;6.10;;;;;;;-5.02;91.85;96782.06;10537567;28;20213;-56
2022/03/03 06:56:55;;;;;;;15.83;7.23;;;;;;;-4.84;92.05;96781.34;10544809;28;20685;-59
2022/03/03 07:01:56;;;;;;;13.23;7.20;;;;;;;-4.51;90.08;96769.81;10495617;28;20835;-56
2022/03/03 07:06:56;;;;;;;16.97;7.53;;;;;;;-4.32;89.38;96765.63;10495654;28;20285;-59
2022/03/03 07:11:58;;;;;;;13.53;6.00;;;;;;;-4.28;87.90;96760.38;10494918;28;20246;-60
2022/03/03 07:17:05;;;;;;;16.93;6.67;;;;;;;-4.21;87.97;96767.72;10495276;28;20273;-60
2022/03/03 07:22:17;;;;;;;14.80;7.83;;;;;;;-3.98;88.07;96751.41;10477005;28;20237;-57
2022/03/03 07:27:22;;;;;;;13.53;7.73;;;;;;;-3.66;86.98;96744.03;10494267;28;20265;-60
2022/03/03 07:32:31;;;;;;;24.00;8.83;;;;;;;-3.11;84.93;96734.72;10494309;28;20222;-61
2022/03/03 07:37:39;;;;;;;16.63;8.10;;;;;;;-2.39;81.52;96700.50;10493965;28;20199;-61
2022/03/03 07:42:39;;;;;;;16.87;8.80;;;;;;;-2.00;79.52;96693.41;10494745;28;20289;-56
2022/03/03 07:47:40;;;;;;;21.27;9.00;;;;;;;-1.66;79.06;96689.88;10493494;28;20209;-58
2022/03/03 07:52:43;;;;;;;20.17;9.53;;;;;;;-1.10;76.86;96664.56;10517004;28;20830;-59
2022/03/03 07:57:50;;;;;;;16.70;8.93;;;;;;;-0.35;74.62;96645.75;10531492;28;20724;-59
2022/03/03 08:02:53;;;;;;;16.70;8.33;;;;;;;-0.29;72.06;96609.34;10533051;28;20210;-57
2022/03/03 08:07:54;;;;;;;22.00;8.70;;;;;;;0.25;72.58;96613.81;10534073;28;20194;-59
2022/03/03 08:12:58;;;;;;;14.47;8.63;;;;;;;1.06;69.42;96582.00;10528221;28;20718;-60
2022/03/03 08:17:58;;;;;;;17.40;8.93;;;;;;;1.73;66.98;96537.09;10534425;28;20194;-60
2022/03/03 08:23:00;;;;;;;22.73;10.60;;;;;;;2.22;65.04;96513.91;10533501;28;20213;-57
2022/03/03 08:28:02;;;;;;;27.30;11.23;;;;;;;2.91;62.13;96484.78;10532579;28;20193;-60
2022/03/03 08:33:08;;;;;;;23.53;11.60;;;;;;;3.09;60.60;96464.47;10531196;28;20225;-59
2022/03/03 08:38:28;;;;;;;20.73;10.77;;;;;;;3.68;58.18;96438.31;10506490;28;20197;-60
2022/03/03 08:43:31;;;;;;;23.73;12.00;;;;;;;5.05;55.09;96399.59;10532554;28;20210;-61
2022/03/03 08:48:32;;;;;;;24.00;13.47;;;;;;;6.14;53.55;96407.56;10532860;28;20194;-61
2022/03/03 08:53:32;;;;;;;23.10;13.10;;;;;;;7.39;49.44;96363.16;10532424;28;20221;-63
2022/03/03 08:58:33;;;;;;;24.47;15.13;;;;;;;7.72;44.90;96274.03;10531450;28;20187;-62
2022/03/03 09:03:33;;;;;;;26.63;14.87;;;;;;;9.62;41.34;96238.28;10531793;28;20289;-63
2022/03/03 09:08:33;;;;;;;27.40;14.57;;;;;;;9.45;40.42;96229.59;10531761;28;20198;-62
2022/03/03 09:13:34;;;;;;;24.65;14.02;;;;;;;10.66;39.31;96240.34;10531108;28;20238;-63
2022/03/03 09:18:34;;;;;;;26.50;15.10;;;;;;;9.60;39.84;96250.72;10536238;28;20661;-62
2022/03/03 09:23:35;;;;;;;27.38;13.98;;;;;;;10.35;40.28;96312.59;10516948;28;20647;-62
2022/03/03 09:28:35;;;;;;;21.08;12.27;;;;;;;10.11;40.23;96294.25;10539819;28;20194;-62
2022/03/03 09:33:35;;;;;;;24.15;14.02;;;;;;;10.32;40.19;96302.41;10536816;28;20226;-62
2022/03/03 09:38:36;;;;;;;18.05;11.45;;;;;;;11.27;37.50;96243.19;10506806;28;20274;-62
2022/03/03 09:43:36;;;;;;;18.23;11.70;;;;;;;10.38;37.56;96217.16;10496621;28;20264;-62
2022/03/03 09:48:37;;;;;;;19.23;12.73;;;;;;;8.67;39.78;96235.91;10518807;28;20264;-61
2022/03/03 09:53:39;;;;;;;19.30;11.65;;;;;;;9.42;39.68;96268.34;10539178;28;20222;-59
2022/03/03 09:58:39;;;;;;;20.93;12.13;;;;;;;9.16;41.13;96295.38;10538538;28;20191;-62
2022/03/03 10:03:41;;;;;;;16.90;11.67;;;;;;;8.66;40.57;96264.78;10538551;28;20684;-63
2022/03/03 10:08:42;;;;;;;22.90;13.80;;;;;;;10.31;38.95;96279.81;10538684;28;20196;-63
2022/03/03 10:13:51;;;;;;;28.13;16.52;;;;;;;9.54;39.20;96260.97;10537604;28;20243;-63
2022/03/03 10:19:03;;;;;;;24.60;15.75;;;;;;;9.06;39.59;96258.09;10537325;28;20247;-62
2022/03/03 10:24:19;;;;;;;25.20;13.23;;;;;;;9.34;39.11;96250.00;10538097;28;20729;-64
2022/03/03 10:29:21;;;;;;;22.05;14.25;;;;;;;10.35;37.77;96244.50;10569723;28;20279;-63
2022/03/03 10:34:26;;;;;;;25.23;15.80;;;;;;;10.92;38.45;96286.41;10578846;28;20761;-63
2022/03/03 10:39:44;;;;;;;24.55;14.20;;;;;;;11.74;36.58;96250.09;10579086;28;20284;-62
2022/03/03 10:44:45;;;;;;;22.90;13.20;;;;;;;10.88;37.81;96263.19;10579037;28;20675;-62
2022/03/03 10:49:47;;;;;;;27.02;14.82;;;;;;;10.85;38.19;96275.81;10578952;28;20206;-63
2022/03/03 10:54:58;;;;;;;23.98;14.75;;;;;;;11.52;36.39;96241.22;10536796;28;20215;-62
2022/03/03 11:00:00;;;;;;;21.60;13.30;;;;;;;12.29;34.53;96197.47;10535751;28;20233;-62
2022/03/03 11:05:01;;;;;;;22.42;13.55;;;;;;;13.27;34.93;96237.56;10536202;28;20183;-63
2022/03/03 11:10:03;;;;;;;21.58;14.07;;;;;;;13.03;34.18;96188.72;10535279;28;20321;-63
2022/03/03 11:15:04;;;;;;;22.80;14.38;;;;;;;11.81;36.54;96252.00;10536098;28;20216;-63
2022/03/03 11:20:06;;;;;;;20.83;12.18;;;;;;;12.63;34.44;96185.63;10533334;28;20293;-62
2022/03/03 11:25:16;;;;;;;21.25;12.88;;;;;;;12.41;35.06;96221.50;10534117;28;20191;-63
2022/03/03 11:30:17;;;;;;;21.38;13.13;;;;;;;12.07;35.54;96217.56;10524260;28;20223;-63
2022/03/03 11:35:20;;;;;;;21.02;13.63;;;;;;;10.17;38.53;96220.28;10532518;28;20198;-62
2022/03/03 11:40:20;;;;;;;23.15;14.15;;;;;;;10.15;37.88;96211.78;10533516;28;20218;-62
2022/03/03 11:45:32;;;;;;;21.48;12.90;;;;;;;11.41;37.12;96245.06;10534846;28;20194;-62
2022/03/03 11:50:32;;;;;;;23.15;13.32;;;;;;;12.58;34.60;96209.00;10528515;28;20681;-62
2022/03/03 11:55:50;;;;;;;21.85;13.40;;;;;;;12.44;35.13;96219.31;10533088;28;20194;-63
2022/03/03 12:01:00;;;;;;;23.13;13.95;;;;;;;11.65;35.95;96203.09;10534358;28;20680;-63
2022/03/03 12:06:10;;;;;;;22.40;13.43;;;;;;;12.01;35.99;96213.03;10533290;28;20950;-63
2022/03/03 12:11:17;;;;;;;24.92;14.82;;;;;;;11.60;37.74;96259.53;10543317;22;20239;-62
2022/03/03 12:16:34;;;;;;;24.20;13.77;;;;;;;11.21;38.08;96260.44;10491654;28;20199;-62
2022/03/03 12:21:48;;;;;;;26.00;17.17;;;;;;;12.66;35.56;96232.56;10492532;28;20207;-62
2022/03/03 12:26:52;;;;;;;24.55;14.32;;;;;;;12.14;36.08;96234.22;10491072;28;20199;-62
2022/03/03 12:31:52;;;;;;;22.70;14.48;;;;;;;11.89;35.17;96191.59;10491583;28;20222;-61
2022/03/03 12:36:54;;;;;;;23.83;13.43;;;;;;;13.63;34.94;96239.41;10492088;28;20206;-60
2022/03/03 12:41:57;;;;;;;26.88;14.02;;;;;;;12.46;36.30;96238.34;10491491;28;20215;-58
2022/03/03 12:46:59;;;;;;;22.83;14.35;;;;;;;13.99;34.41;96233.25;10490610;28;20241;-62
2022/03/03 12:52:02;;;;;;;21.25;14.25;;;;;;;12.25;37.37;96253.97;10494566;28;20222;-61
2022/03/03 12:57:04;;;;;;;24.10;14.10;;;;;;;13.30;34.96;96224.03;10498960;28;20206;-60
2022/03/03 13:02:04;;;;;;;24.50;14.07;;;;;;;13.40;35.21;96238.75;10497931;28;20207;-62
2022/03/03 13:07:06;;;;;;;23.23;14.55;;;;;;;13.33;35.25;96217.59;10499192;28;20750;-63
2022/03/03 13:12:07;;;;;;;22.35;13.85;;;;;;;11.83;38.14;96263.16;10497872;28;20231;-62
2022/03/03 13:17:08;;;;;;;21.63;14.13;;;;;;;13.13;35.02;96212.91;10498091;28;20195;-63
2022/03/03 13:22:09;;;;;;;24.05;14.75;;;;;;;12.38;36.56;96222.66;10497993;28;20211;-62
2022/03/03 13:27:09;;;;;;;23.67;14.93;;;;;;;11.83;36.96;96223.81;10479114;28;20191;-62
2022/03/03 13:32:11;;;;;;;21.55;14.18;;;;;;;13.00;36.56;96254.84;10495186;28;20223;-61
2022/03/03 13:37:17;;;;;;;19.63;13.35;;;;;;;13.61;34.93;96212.44;10497399;28;20191;-60
2022/03/03 13:42:20;;;;;;;20.10;13.88;;;;;;;12.11;36.41;96222.28;10496317;28;20195;-63
2022/03/03 13:47:24;;;;;;;22.30;14.02;;;;;;;13.14;35.51;96227.72;10496977;28;20187;-63
2022/03/03 13:52:27;;;;;;;22.10;14.35;;;;;;;12.19;36.49;96225.81;10496345;28;20720;-61
2022/03/03 13:57:50;;;;;;;24.98;14.40;;;;;;;12.36;36.69;96237.81;10497338;28;20206;-60
2022/03/03 14:02:53;;;;;;;25.13;15.25;;;;;;;12.25;37.28;96246.09;10494073;28;20851;-62
2022/03/03 14:07:55;;;;;;;26.90;15.20;;;;;;;12.06;37.35;96242.97;10496299;28;20276;-63
2022/03/03 14:13:02;;;;;;;29.38;16.58;;;;;;;13.30;35.71;96234.56;10492540;28;20660;-61
2022/03/03 14:18:03;;;;;;;25.27;15.25;;;;;;;13.05;36.62;96249.03;10502624;28;20282;-62
2022/03/03 14:23:03;;;;;;;22.75;15.68;;;;;;;13.54;34.98;96209.75;10460710;28;20200;-62
2022/03/03 14:28:04;;;;;;;25.38;15.38;;;;;;;13.48;35.63;96231.56;10471730;28;20278;-59
2022/03/03 14:33:04;;;;;;;23.38;14.75;;;;;;;12.71;35.75;96203.94;10453812;28;20230;-60
2022/03/03 14:38:05;;;;;;;23.23;15.38;;;;;;;13.44;35.68;96230.28;10481140;28;20282;-59
2022/03/03 14:43:05;;;;;;;21.70;14.73;;;;;;;14.53;34.49;96229.19;10495068;28;20211;-60
2022/03/03 14:48:06;;;;;;;21.00;14.32;;;;;;;14.37;35.08;96226.84;10494443;28;20191;-59
2022/03/03 14:53:07;;;;;;;19.40;14.18;;;;;;;13.35;33.92;96148.06;10494029;28;20772;-60
2022/03/03 14:58:07;;;;;;;23.02;15.05;;;;;;;12.89;34.46;96163.28;10494480;28;20223;-60
2022/03/03 15:03:08;;;;;;;23.55;14.55;;;;;;;13.39;34.55;96172.16;10492655;28;20764;-58
2022/03/03 15:08:09;;;;;;;23.50;14.85;;;;;;;11.94;36.32;96166.50;10490495;28;20191;-58
2022/03/03 15:13:09;;;;;;;21.15;13.38;;;;;;;13.07;34.70;96168.97;10492409;28;20292;-56
2022/03/03 15:18:09;;;;;;;22.55;13.95;;;;;;;14.09;34.08;96190.78;10493648;28;20658;-59
2022/03/03 15:23:10;;;;;;;26.13;15.20;;;;;;;13.87;33.88;96188.19;10493495;28;20322;-55
2022/03/03 15:28:10;;;;;;;21.48;13.43;;;;;;;15.10;32.44;96186.88;10493444;28;20210;-60
2022/03/03 15:36:44;;;;;;;22.85;14.80;;;;;;;15.39;31.60;96163.81;10493564;28;20326;-58
2022/03/03 15:38:31;;;;;;;24.23;15.10;;;;;;;14.61;31.73;96126.25;10493234;28;20379;-60
2022/03/03 15:43:32;;;;;;;22.42;15.13;;;;;;;13.83;34.03;96168.50;10491541;28;20478;-59
2022/03/03 15:48:33;;;;;;;29.58;18.73;;;;;;;12.56;35.25;96175.03;10492780;28;20250;-59
2022/03/03 15:53:34;;;;;;;25.85;16.52;;;;;;;9.90;39.86;96219.66;10492401;28;20207;-58
2022/03/03 15:58:34;;;;;;;24.53;14.97;;;;;;;7.23;45.29;96313.44;10491292;28;20195;-58
2022/03/03 16:03:37;;;;;;;29.80;15.80;;;;;;;5.81;49.12;96397.38;10491719;28;20257;-60
2022/03/03 16:08:37;;;;;;;24.67;15.30;;;;;;;5.54;50.86;96457.75;10491112;28;20183;-58
2022/03/03 16:13:38;;;;;;;25.90;15.37;;;;;;;4.79;52.99;96509.00;10490092;28;20227;-55
2022/03/03 16:18:38;;;;;;;35.87;20.63;;;;;;;4.56;54.35;96542.81;10488995;28;20257;-55
2022/03/03 16:23:39;;;;;;;29.83;18.23;;;;;;;4.35;55.70;96573.91;10490850;28;20218;-55
2022/03/03 16:28:40;;;;;;;32.37;17.00;;;;;;;4.16;56.71;96603.03;10498737;28;20544;-58
2022/03/03 16:33:40;;;;;;;40.53;21.17;;;;;;;3.83;57.77;96624.59;10499832;28;20203;-57
2022/03/03 16:38:40;;;;;;;36.93;18.93;;;;;;;3.49;59.10;96646.13;10497113;28;20281;-58
2022/03/03 16:43:41;;;;;;;38.77;20.73;;;;;;;3.00;61.31;96662.63;10496887;28;20277;-60
2022/03/03 16:48:41;;;;;;;39.73;19.93;;;;;;;2.61;62.37;96669.72;10488217;28;20203;-56
2022/03/03 16:53:41;;;;;;;33.60;16.97;;;;;;;2.27;63.21;96685.00;10476919;28;20201;-59
2022/03/03 16:58:43;;;;;;;39.33;20.63;;;;;;;2.10;65.02;96699.09;10492114;28;20206;-60
2022/03/03 17:03:43;;;;;;;33.57;18.33;;;;;;;1.24;67.81;96732.22;10498786;28;20257;-61
2022/03/03 17:08:43;;;;;;;36.70;18.23;;;;;;;0.69;70.50;96746.81;10468820;28;20620;-62
2022/03/03 17:13:45;;;;;;;29.67;16.40;;;;;;;0.55;71.88;96751.97;10454815;28;20739;-58
2022/03/03 17:18:45;;;;;;;36.47;19.43;;;;;;;0.14;73.62;96750.97;10482425;28;20225;-59
2022/03/03 17:23:46;;;;;;;33.13;17.23;;;;;;;-0.04;75.84;96764.94;10476247;28;20792;-60
2022/03/03 17:28:50;;;;;;;44.20;20.60;;;;;;;-1.04;79.96;96765.41;10457736;28;20220;-61
2022/03/03 17:33:50;;;;;;;44.67;23.03;;;;;;;-0.83;80.90;96748.78;10458125;28;20298;-60
2022/03/03 17:38:51;;;;;;;35.73;19.57;;;;;;;-1.23;82.84;96756.13;10460584;28;20202;-60
2022/03/03 17:43:53;;;;;;;176.90;60.73;;;;;;;-1.23;83.45;96756.13;10498685;28;20223;-59
2022/03/03 17:48:53;;;;;;;152.10;54.63;;;;;;;-1.31;84.50;96758.28;10482242;28;20279;-60
2022/03/03 17:53:54;;;;;;;63.97;28.83;;;;;;;-1.62;85.94;96765.03;10457108;28;20294;-63
2022/03/03 17:58:54;;;;;;;62.93;27.97;;;;;;;-1.70;88.55;96783.44;10456683;28;20198;-64
2022/03/03 18:03:54;;;;;;;47.40;24.30;;;;;;;-1.85;88.96;96789.34;10456415;28;20601;-61
2022/03/03 18:08:55;;;;;;;83.43;33.57;;;;;;;-1.88;91.88;96795.47;10456181;28;20192;-63
2022/03/03 18:13:55;;;;;;;54.43;26.13;;;;;;;-1.77;91.71;96792.34;10506928;22;20239;-60
2022/03/03 18:18:56;;;;;;;47.37;23.67;;;;;;;-2.00;92.50;96796.06;10496582;28;20195;-61
2022/03/03 18:23:56;;;;;;;52.00;25.77;;;;;;;-2.17;94.72;96799.47;10496755;28;20227;-60
2022/03/03 18:28:56;;;;;;;48.00;22.63;;;;;;;-2.29;94.91;96802.66;10496254;28;20187;-63
2022/03/03 18:33:57;;;;;;;43.90;20.83;;;;;;;-2.23;95.38;96808.31;10495746;28;20211;-61
2022/03/03 18:38:57;;;;;;;58.23;28.37;;;;;;;-2.67;96.68;96815.59;10495780;28;20179;-61
2022/03/03 18:43:58;;;;;;;65.37;30.17;;;;;;;-2.72;98.97;96816.63;10495602;28;20234;-61
2022/03/03 18:48:58;;;;;;;91.93;38.10;;;;;;;-2.72;100.00;96815.78;10494301;28;20611;-61
2022/03/03 18:54:00;;;;;;;46.97;21.70;;;;;;;-2.61;100.00;96821.25;10490335;28;20618;-57
2022/03/03 18:59:00;;;;;;;85.73;36.10;;;;;;;-2.73;100.00;96832.06;10488187;28;20195;-60
2022/03/03 19:04:02;;;;;;;53.70;25.27;;;;;;;-2.98;100.00;96832.38;10493451;28;20258;-61
2022/03/03 19:09:03;;;;;;;59.03;25.00;;;;;;;-2.85;100.00;96832.66;10494354;28;20650;-61
2022/03/03 19:14:04;;;;;;;48.27;22.17;;;;;;;-2.87;100.00;96836.09;10494185;28;20234;-61
2022/03/03 19:19:04;;;;;;;54.93;23.50;;;;;;;-3.15;100.00;96849.34;10494546;28;20548;-61
2022/03/03 19:24:05;;;;;;;50.77;22.40;;;;;;;-3.15;100.00;96835.72;10494232;28;20238;-59
2022/03/03 19:29:06;;;;;;;45.97;21.20;;;;;;;-3.19;100.00;96844.44;10493528;28;20200;-61
2022/03/03 19:34:08;;;;;;;53.83;21.93;;;;;;;-3.19;100.00;96845.25;10493727;28;20457;-61
2022/03/03 19:39:09;;;;;;;46.93;19.90;;;;;;;-3.24;100.00;96858.28;10493315;28;20191;-61
2022/03/03 19:44:09;;;;;;;45.70;20.90;;;;;;;-3.42;100.00;96870.13;10493538;28;20637;-61
2022/03/03 19:49:09;;;;;;;48.33;20.57;;;;;;;-3.55;100.00;96884.41;10493349;28;20325;-61
2022/03/03 19:54:10;;;;;;;47.30;21.17;;;;;;;-3.41;100.00;96888.94;10492923;28;20218;-61
2022/03/03 19:59:10;;;;;;;54.97;21.33;;;;;;;-3.14;100.00;96886.91;10492341;28;20187;-61
2022/03/03 20:04:10;;;;;;;51.00;22.70;;;;;;;-2.87;100.00;96887.38;10492118;28;20234;-60
2022/03/03 20:14:30;;;;;;;50.33;22.37;;;;;;;-2.73;100.00;96891.88;10492590;28;20234;-61
2022/03/03 20:19:31;;;;;;;44.90;20.13;;;;;;;-2.45;100.00;96897.47;10492650;28;20564;-57
2022/03/03 20:24:31;;;;;;;50.03;21.37;;;;;;;-2.21;100.00;96880.91;10492551;28;20600;-61
2022/03/03 20:29:31;;;;;;;42.43;18.40;;;;;;;-1.90;100.00;96892.28;10492324;28;20282;-61
2022/03/03 20:34:34;;;;;;;43.80;17.83;;;;;;;-1.80;100.00;96895.22;10492342;28;20214;-61
2022/03/03 20:39:34;;;;;;;50.13;19.40;;;;;;;-1.77;100.00;96895.06;10492183;28;20328;-60
2022/03/03 20:44:35;;;;;;;46.03;19.10;;;;;;;-1.62;100.00;96893.47;10491469;28;20268;-61
2022/03/03 20:49:35;;;;;;;44.50;17.50;;;;;;;-1.46;100.00;96901.22;10492352;28;20188;-61
2022/03/03 20:54:36;;;;;;;44.63;18.90;;;;;;;-1.34;100.00;96892.91;10491591;28;20199;-61
2022/03/03 20:59:36;;;;;;;45.60;18.73;;;;;;;-1.27;100.00;96909.66;10491554;28;20737;-60
2022/03/03 21:04:37;;;;;;;49.20;20.00;;;;;;;-1.25;100.00;96894.16;10491553;28;20223;-62
2022/03/03 21:09:37;;;;;;;49.63;19.03;;;;;;;-1.11;100.00;96896.03;10491899;28;20184;-61
2022/03/03 21:14:38;;;;;;;43.40;18.07;;;;;;;-1.10;100.00;96900.25;10496817;28;20634;-62
2022/03/03 21:19:40;;;;;;;55.83;21.10;;;;;;;-1.03;100.00;96898.19;10499050;28;20195;-62
2022/03/03 21:24:41;;;;;;;47.20;20.50;;;;;;;-1.04;100.00;96899.94;10499488;28;20234;-61
2022/03/03 21:29:41;;;;;;;47.90;19.17;;;;;;;-0.87;100.00;96911.91;10499012;28;20218;-62
2022/03/03 21:34:41;;;;;;;53.40;19.47;;;;;;;-0.95;100.00;96906.31;10498979;28;20724;-60
2022/03/03 21:39:42;;;;;;;56.53;20.30;;;;;;;-1.03;100.00;96911.88;10499135;28;20677;-61
2022/03/03 21:44:42;;;;;;;59.30;20.87;;;;;;;-1.06;100.00;96906.88;10498372;28;20230;-59
2022/03/03 21:49:43;;;;;;;60.57;21.27;;;;;;;-1.06;100.00;96906.06;10498832;28;20191;-60
2022/03/03 21:54:43;;;;;;;50.50;20.27;;;;;;;-0.95;100.00;96898.63;10498016;28;20222;-60
2022/03/03 21:59:44;;;;;;;50.57;20.37;;;;;;;-1.02;100.00;96913.53;10498143;28;20562;-61
2022/03/03 22:04:44;;;;;;;52.13;20.33;;;;;;;-0.99;100.00;96908.25;10497469;28;20584;-60
2022/03/03 22:09:45;;;;;;;58.27;22.57;;;;;;;-1.13;100.00;96892.72;10497745;28;20198;-61
2022/03/03 22:14:47;;;;;;;53.50;20.67;;;;;;;-1.08;100.00;96891.53;10497519;28;20231;-58
2022/03/03 22:19:49;;;;;;;45.77;19.27;;;;;;;-1.08;100.00;96894.13;10497318;28;20245;-59
2022/03/03 22:24:49;;;;;;;53.70;21.27;;;;;;;-1.11;100.00;96889.13;10497108;28;20219;-60
2022/03/03 22:29:50;;;;;;;56.83;21.63;;;;;;;-1.12;100.00;96877.22;10496732;28;20187;-59
2022/03/03 22:34:50;;;;;;;53.00;21.73;;;;;;;-1.05;100.00;96880.28;10496828;28;20211;-59
2022/03/03 22:39:51;;;;;;;49.97;19.57;;;;;;;-0.96;100.00;96874.66;10496678;28;20199;-57
2022/03/03 22:44:51;;;;;;;48.93;20.00;;;;;;;-1.08;100.00;96886.41;10496157;28;20226;-60
2022/03/03 22:55:11;;;;;;;44.37;18.87;;;;;;;-1.31;100.00;96877.31;10496086;28;20899;-58
2022/03/03 23:00:12;;;;;;;45.23;18.47;;;;;;;-1.41;100.00;96886.41;10495185;28;20226;-59
2022/03/03 23:05:12;;;;;;;40.87;17.30;;;;;;;-1.45;100.00;96890.88;10495339;28;20217;-60
2022/03/03 23:10:13;;;;;;;48.57;18.20;;;;;;;-1.48;100.00;96885.88;10494984;28;20545;-60